createdAt,value
2019-01-23T00:02:25.123Z,35.70
2019-01-23T00:04:53.236Z,26.33
2019-01-23T00:07:20.874Z,36.83
2019-01-23T00:09:48.496Z,38.50
2019-01-23T00:12:16.053Z,22.50
2019-01-23T00:14:43.563Z,45.40
2019-01-23T00:17:11.134Z,31.27
2019-01-23T00:19:38.908Z,42.90
2019-01-23T00:22:06.510Z,29.33
2019-01-23T00:24:34.203Z,38.47
2019-01-23T00:27:02.018Z,33.03
2019-01-23T00:29:29.535Z,34.27
2019-01-23T00:31:57.110Z,35.73
2019-01-23T00:34:24.691Z,39.97
2019-01-23T00:36:52.718Z,41.73
2019-01-23T00:39:20.366Z,34.17
2019-01-23T00:41:47.922Z,37.50
2019-01-23T00:44:15.527Z,33.77
2019-01-23T00:46:43.462Z,40.87
2019-01-23T00:49:11.437Z,35.93
2019-01-23T00:51:39.019Z,37.30
2019-01-23T00:54:06.849Z,29.17
2019-01-23T00:56:34.710Z,33.77
2019-01-23T00:59:02.601Z,31.90
2019-01-23T01:01:30.156Z,29.97
2019-01-23T01:03:57.838Z,33.83
2019-01-23T01:06:25.500Z,30.63
2019-01-23T01:08:53.582Z,30.77
2019-01-23T01:11:21.181Z,36.30
2019-01-23T01:13:48.781Z,34.80
2019-01-23T01:16:16.460Z,39.87
2019-01-23T01:18:43.976Z,31.80
2019-01-23T01:21:11.619Z,39.50
2019-01-23T01:23:39.186Z,30.30
2019-01-23T01:26:06.693Z,33.13
2019-01-23T01:28:34.565Z,39.70
2019-01-23T01:31:02.188Z,35.27
2019-01-23T01:33:33.942Z,34.27
2019-01-23T01:35:59.579Z,36.00
2019-01-23T01:38:27.165Z,34.23
2019-01-23T01:40:54.744Z,38.57
2019-01-23T01:43:22.319Z,38.60
2019-01-23T01:45:49.919Z,44.37
2019-01-23T01:48:17.472Z,38.30
2019-01-23T01:50:45.072Z,34.50
2019-01-23T01:53:12.703Z,33.60
2019-01-23T01:55:40.249Z,35.53
2019-01-23T01:58:10.236Z,33.77
2019-01-23T02:00:37.303Z,35.10
2019-01-23T02:03:05.068Z,30.43
2019-01-23T02:05:32.728Z,35.63
2019-01-23T02:08:00.320Z,36.03
2019-01-23T02:10:27.917Z,35.13
2019-01-23T02:12:55.736Z,35.10
2019-01-23T02:15:23.357Z,24.17
2019-01-23T02:17:50.982Z,39.03
2019-01-23T02:20:26.377Z,32.83
2019-01-23T02:22:53.923Z,31.13
2019-01-23T02:25:22.140Z,29.53
2019-01-23T02:27:49.689Z,39.87
2019-01-23T02:30:21.357Z,36.77
2019-01-23T02:32:49.030Z,38.40
2019-01-23T02:35:17.331Z,34.90
2019-01-23T02:37:44.960Z,39.63
2019-01-23T02:40:15.220Z,30.80
2019-01-23T02:42:42.910Z,36.33
2019-01-23T02:45:11.199Z,35.00
2019-01-23T02:47:39.147Z,38.47
2019-01-23T02:50:06.902Z,39.73
2019-01-23T02:52:34.822Z,37.70
2019-01-23T02:55:03.338Z,39.10
2019-01-23T02:57:31.278Z,37.63
2019-01-23T02:59:58.854Z,39.40
2019-01-23T03:02:26.484Z,37.53
2019-01-23T03:04:54.072Z,36.03
2019-01-23T03:07:21.780Z,39.77
2019-01-23T03:09:49.340Z,38.17
2019-01-23T03:17:53.162Z,35.97
2019-01-23T03:26:25.408Z,31.47
2019-01-23T03:29:05.863Z,34.00
2019-01-23T03:31:46.447Z,37.43
2019-01-23T03:34:26.151Z,43.47
2019-01-23T03:37:06.682Z,36.43
2019-01-23T03:39:46.860Z,37.47
2019-01-23T03:42:26.665Z,39.10
2019-01-23T03:45:06.937Z,40.90
2019-01-23T03:47:46.962Z,38.17
2019-01-23T03:50:27.259Z,36.60
2019-01-23T03:53:07.200Z,40.00
2019-01-23T03:55:47.384Z,40.77
2019-01-23T03:58:27.818Z,40.47
2019-01-23T04:01:07.725Z,35.50
2019-01-23T04:03:47.852Z,39.00
2019-01-23T04:06:28.342Z,38.30
2019-01-23T04:09:08.079Z,38.17
2019-01-23T04:11:48.194Z,41.83
2019-01-23T04:14:28.568Z,40.53
2019-01-23T04:17:08.540Z,38.97
2019-01-23T04:19:48.588Z,42.03
2019-01-23T04:22:28.711Z,42.47
2019-01-23T04:25:08.695Z,39.40
2019-01-23T04:27:49.220Z,40.67
2019-01-23T04:30:28.985Z,38.67
2019-01-23T04:33:09.173Z,35.37
2019-01-23T04:35:49.317Z,37.07
2019-01-23T04:38:29.188Z,40.13
2019-01-23T04:41:09.373Z,34.83
2019-01-23T04:43:49.611Z,43.73
2019-01-23T04:46:30.112Z,43.47
2019-01-23T04:49:09.770Z,42.20
2019-01-23T04:51:54.277Z,41.03
2019-01-23T04:54:34.623Z,45.70
2019-01-23T04:57:14.949Z,40.37
2019-01-23T04:59:54.714Z,37.33
2019-01-23T05:02:35.212Z,37.93
2019-01-23T05:05:14.869Z,40.90
2019-01-23T05:07:55.031Z,40.03
2019-01-23T05:10:35.265Z,37.87
2019-01-23T05:13:15.422Z,41.07
2019-01-23T05:15:55.335Z,38.77
2019-01-23T05:18:35.531Z,34.00
2019-01-23T05:21:16.294Z,37.27
2019-01-23T05:23:55.736Z,35.53
2019-01-23T05:26:35.737Z,39.60
2019-01-23T05:29:15.814Z,37.20
2019-01-23T05:31:56.026Z,38.10
2019-01-23T05:34:36.339Z,35.97
2019-01-23T05:37:16.064Z,39.67
2019-01-23T05:39:56.239Z,38.63
2019-01-23T05:42:36.265Z,36.07
2019-01-23T05:45:16.631Z,34.73
2019-01-23T05:47:57.067Z,41.17
2019-01-23T05:50:36.594Z,36.83
2019-01-23T05:53:16.585Z,40.77
2019-01-23T05:55:57.398Z,39.00
2019-01-23T05:58:36.870Z,38.73
2019-01-23T06:01:17.145Z,37.37
2019-01-23T06:03:57.692Z,37.57
2019-01-23T06:06:37.419Z,37.17
2019-01-23T06:09:18.073Z,37.10
2019-01-23T06:11:57.871Z,40.60
2019-01-23T06:14:38.159Z,41.40
2019-01-23T06:17:18.116Z,42.53
2019-01-23T06:19:58.348Z,43.43
2019-01-23T06:22:38.581Z,48.50
2019-01-23T06:25:46.738Z,43.63
2019-01-23T06:31:26.870Z,38.23
2019-01-23T06:40:07.227Z,42.20
2019-01-23T06:42:53.986Z,45.47
2019-01-23T06:45:40.797Z,43.03
2019-01-23T06:48:27.973Z,43.30
2019-01-23T06:51:15.079Z,47.83
2019-01-23T07:05:33.847Z,74.73
2019-01-23T07:08:20.895Z,68.93
2019-01-23T07:11:07.663Z,62.93
2019-01-23T07:13:54.468Z,53.73
2019-01-23T07:16:41.604Z,54.13
2019-01-23T07:19:28.386Z,53.50
2019-01-23T07:22:08.218Z,58.23
2019-01-23T07:24:48.307Z,53.77
2019-01-23T07:27:28.388Z,56.37
2019-01-23T07:30:08.823Z,61.17
2019-01-23T07:32:48.709Z,68.27
2019-01-23T07:35:28.746Z,75.20
2019-01-23T07:38:08.829Z,80.80
2019-01-23T07:40:48.876Z,71.30
2019-01-23T07:43:29.143Z,61.17
2019-01-23T07:46:09.332Z,62.50
2019-01-23T07:48:49.288Z,61.97
2019-01-23T07:51:29.505Z,63.53
2019-01-23T07:54:09.599Z,62.53
2019-01-23T07:56:49.618Z,59.87
2019-01-23T07:59:31.884Z,63.37
2019-01-23T08:02:11.983Z,58.53
2019-01-23T08:04:52.304Z,56.37
2019-01-23T08:07:31.934Z,57.00
2019-01-23T08:10:12.126Z,61.50
2019-01-23T08:12:51.971Z,70.43
2019-01-23T08:15:32.409Z,63.17
2019-01-23T08:18:12.026Z,70.07
2019-01-23T08:20:52.629Z,73.67
2019-01-23T08:23:32.092Z,68.70
2019-01-23T08:26:12.413Z,61.37
2019-01-23T08:28:52.889Z,61.87
2019-01-23T08:31:33.162Z,63.23
2019-01-23T08:34:12.976Z,61.77
2019-01-23T08:36:40.306Z,63.77
2019-01-23T08:39:08.268Z,66.87
2019-01-23T08:41:35.655Z,67.07
2019-01-23T08:44:03.335Z,62.90
2019-01-23T08:46:30.898Z,59.30
2019-01-23T08:48:58.523Z,59.07
2019-01-23T08:51:25.865Z,58.50
2019-01-23T08:53:53.472Z,56.90
2019-01-23T08:56:20.792Z,55.60
2019-01-23T08:58:48.138Z,58.73
2019-01-23T09:01:15.413Z,56.47
2019-01-23T09:03:42.897Z,54.87
2019-01-23T09:06:10.581Z,60.23
2019-01-23T09:08:38.168Z,54.43
2019-01-23T09:11:05.624Z,55.37
2019-01-23T09:13:32.969Z,52.70
2019-01-23T09:16:00.514Z,55.73
2019-01-23T09:18:28.077Z,57.13
2019-01-23T09:20:55.399Z,58.23
2019-01-23T09:23:22.686Z,59.80
2019-01-23T09:25:51.619Z,50.60
2019-01-23T09:28:19.001Z,55.73
2019-01-23T09:31:14.489Z,54.17
2019-01-23T09:33:59.712Z,55.90
2019-01-23T09:37:17.947Z,60.67
2019-01-23T09:40:10.199Z,62.97
2019-01-23T09:43:09.053Z,62.27
2019-01-23T09:46:12.576Z,59.20
2019-01-23T09:49:20.839Z,60.93
2019-01-23T09:52:14.246Z,62.40
2019-01-23T09:54:41.586Z,67.47
2019-01-23T09:57:08.875Z,60.97
2019-01-23T09:59:36.336Z,60.77
2019-01-23T10:02:03.918Z,64.90
2019-01-23T10:04:31.438Z,61.97
2019-01-23T10:06:58.866Z,56.67
2019-01-23T10:09:26.204Z,65.63
2019-01-23T10:11:53.574Z,59.97
2019-01-23T10:14:20.948Z,63.37
2019-01-23T10:16:48.296Z,64.43
2019-01-23T10:19:15.624Z,67.97
2019-01-23T10:21:42.932Z,63.93
2019-01-23T10:24:10.273Z,71.50
2019-01-23T10:26:37.947Z,71.80
2019-01-23T10:29:05.241Z,71.10
2019-01-23T10:31:32.568Z,68.13
2019-01-23T10:33:59.836Z,70.63
2019-01-23T10:36:27.150Z,67.07
2019-01-23T10:38:54.554Z,65.53
2019-01-23T10:41:22.290Z,64.37
2019-01-23T10:43:49.640Z,66.10
2019-01-23T10:46:17.361Z,67.73
2019-01-23T10:48:44.678Z,70.43
2019-01-23T10:51:12.269Z,60.13
2019-01-23T10:53:39.542Z,73.67
2019-01-23T10:56:06.902Z,68.17
2019-01-23T10:58:34.510Z,66.97
2019-01-23T11:01:01.816Z,76.53
2019-01-23T11:03:29.140Z,66.27
2019-01-23T11:05:56.471Z,65.60
2019-01-23T11:08:23.732Z,66.10
2019-01-23T11:10:51.058Z,60.93
2019-01-23T11:13:18.372Z,63.77
2019-01-23T11:15:45.756Z,63.73
2019-01-23T11:18:13.424Z,79.83
2019-01-23T11:20:40.737Z,64.13
2019-01-23T11:23:08.017Z,63.20
2019-01-23T11:25:35.331Z,60.17
2019-01-23T11:28:03.100Z,66.47
2019-01-23T11:30:30.718Z,65.60
2019-01-23T11:32:58.042Z,63.10
2019-01-23T11:35:25.432Z,66.77
2019-01-23T11:37:52.935Z,65.60
2019-01-23T11:40:25.187Z,57.13
2019-01-23T11:42:52.594Z,63.43
2019-01-23T11:45:20.106Z,67.53
2019-01-23T11:47:47.671Z,56.40
2019-01-23T11:50:21.293Z,53.50
2019-01-23T11:52:46.098Z,58.43
2019-01-23T11:55:13.497Z,62.37
2019-01-23T11:57:41.129Z,62.70
2019-01-23T12:00:16.346Z,61.87
2019-01-23T12:02:43.682Z,61.37
2019-01-23T12:05:12.645Z,60.00
2019-01-23T12:07:40.121Z,57.23
2019-01-23T12:10:10.397Z,55.07
2019-01-23T12:12:37.696Z,56.07
2019-01-23T12:15:09.164Z,56.80
2019-01-23T12:17:37.086Z,55.07
2019-01-23T12:20:05.009Z,56.23
2019-01-23T12:22:32.450Z,47.23
2019-01-23T12:24:59.759Z,47.97
2019-01-23T12:27:27.064Z,47.13
2019-01-23T12:29:54.319Z,48.10
2019-01-23T12:32:21.917Z,42.87
2019-01-23T12:34:49.810Z,48.10
2019-01-23T12:37:17.204Z,44.67
2019-01-23T12:39:44.528Z,46.27
2019-01-23T12:42:11.942Z,42.23
2019-01-23T12:44:39.277Z,44.67
2019-01-23T12:47:06.591Z,45.73
2019-01-23T12:49:33.900Z,43.33
2019-01-23T12:52:01.459Z,44.50
2019-01-23T12:54:28.781Z,44.23
2019-01-23T12:56:56.068Z,43.37
2019-01-23T12:59:23.363Z,48.90
2019-01-23T13:01:50.694Z,42.70
2019-01-23T13:04:18.363Z,42.17
2019-01-23T13:06:45.732Z,42.30
2019-01-23T13:09:13.042Z,43.27
2019-01-23T13:11:40.378Z,64.30
2019-01-23T13:14:07.658Z,41.33
2019-01-23T13:16:35.170Z,38.10
2019-01-23T13:19:02.730Z,47.73
2019-01-23T13:21:30.055Z,44.83
2019-01-23T13:23:57.472Z,45.97
2019-01-23T13:26:24.875Z,41.70
2019-01-23T13:28:52.418Z,39.50
2019-01-23T13:31:19.744Z,38.07
2019-01-23T13:33:47.021Z,40.40
2019-01-23T13:36:14.310Z,39.50
2019-01-23T13:38:42.248Z,40.97
2019-01-23T13:41:10.163Z,43.90
2019-01-23T13:43:37.555Z,41.67
2019-01-23T13:46:04.912Z,40.20
2019-01-23T13:48:32.463Z,42.30
2019-01-23T13:51:00.533Z,45.10
2019-01-23T13:53:28.111Z,44.67
2019-01-23T13:55:55.814Z,46.20
2019-01-23T13:58:23.140Z,38.90
2019-01-23T14:00:50.419Z,41.73
2019-01-23T14:03:18.332Z,45.87
2019-01-23T14:05:45.584Z,42.47
2019-01-23T14:08:13.214Z,38.93
2019-01-23T14:10:41.208Z,43.97
2019-01-23T14:13:08.500Z,39.67
2019-01-23T14:15:37.027Z,38.50
2019-01-23T14:18:05.243Z,41.87
2019-01-23T14:20:32.525Z,41.73
2019-01-23T14:22:59.851Z,44.17
2019-01-23T14:25:27.123Z,46.70
2019-01-23T14:27:54.500Z,50.53
2019-01-23T14:30:33.334Z,46.63
2019-01-23T14:33:00.779Z,49.90
2019-01-23T14:35:28.753Z,45.90
2019-01-23T14:38:00.520Z,51.20
2019-01-23T14:40:25.388Z,51.53
2019-01-23T14:42:52.743Z,44.37
2019-01-23T14:45:20.063Z,50.43
2019-01-23T14:47:47.437Z,53.93
2019-01-23T14:50:15.110Z,49.07
2019-01-23T14:52:43.071Z,49.17
2019-01-23T14:55:10.577Z,47.67
2019-01-23T14:57:38.303Z,47.83
2019-01-23T15:00:08.839Z,47.50
2019-01-23T15:02:36.748Z,50.27
2019-01-23T15:05:04.617Z,45.73
2019-01-23T15:07:32.563Z,48.83
2019-01-23T15:09:59.887Z,47.50
2019-01-23T15:12:27.241Z,53.87
2019-01-23T15:14:54.843Z,54.80
2019-01-23T15:17:22.487Z,56.37
2019-01-23T15:19:49.925Z,55.53
2019-01-23T15:22:17.384Z,51.00
2019-01-23T15:24:44.663Z,54.53
2019-01-23T15:27:11.997Z,58.80
2019-01-23T15:29:39.627Z,53.53
2019-01-23T15:32:06.918Z,59.13
2019-01-23T15:34:34.531Z,56.00
2019-01-23T15:37:01.866Z,55.60
2019-01-23T15:39:29.158Z,58.97
2019-01-23T15:41:56.735Z,56.27
2019-01-23T15:44:24.317Z,60.73
2019-01-23T15:46:51.626Z,63.97
2019-01-23T15:49:18.972Z,60.40
2019-01-23T15:51:46.294Z,61.00
2019-01-23T15:54:13.746Z,58.60
2019-01-23T15:56:41.287Z,59.63
2019-01-23T15:59:09.007Z,61.27
2019-01-23T16:01:36.327Z,64.23
2019-01-23T16:04:03.823Z,63.93
2019-01-23T16:06:31.251Z,61.60
2019-01-23T16:08:58.863Z,64.10
2019-01-23T16:11:26.166Z,59.67
2019-01-23T16:13:53.475Z,59.23
2019-01-23T16:16:20.747Z,68.73
2019-01-23T16:18:48.449Z,59.67
2019-01-23T16:21:15.764Z,59.50
2019-01-23T16:23:43.113Z,58.20
2019-01-23T16:26:10.382Z,57.63
2019-01-23T16:28:37.726Z,59.20
2019-01-23T16:31:05.057Z,62.83
2019-01-23T16:33:32.420Z,59.77
2019-01-23T16:35:59.865Z,54.03
2019-01-23T16:38:27.184Z,56.13
2019-01-23T16:40:54.482Z,59.27
2019-01-23T16:43:21.806Z,55.13
2019-01-23T16:45:49.034Z,56.07
2019-01-23T16:48:16.372Z,52.63
2019-01-23T16:50:43.740Z,57.47
2019-01-23T16:53:11.214Z,52.93
2019-01-23T16:55:38.828Z,54.63
2019-01-23T16:58:07.316Z,50.53
2019-01-23T17:00:34.806Z,51.43
2019-01-23T17:03:03.054Z,54.73
2019-01-23T17:05:31.118Z,53.60
2019-01-23T17:08:00.631Z,57.77
2019-01-23T17:10:28.294Z,53.37
2019-01-23T17:12:55.596Z,55.73
2019-01-23T17:15:23.062Z,56.60
2019-01-23T17:17:50.780Z,59.17
2019-01-23T17:20:24.432Z,59.37
2019-01-23T17:22:51.768Z,59.97
2019-01-23T17:25:19.208Z,59.00
2019-01-23T17:27:46.883Z,60.77
2019-01-23T17:30:15.530Z,70.80
2019-01-23T17:32:45.773Z,74.17
2019-01-23T17:35:13.239Z,74.10
2019-01-23T17:37:40.518Z,65.70
2019-01-23T17:40:09.729Z,75.07
2019-01-23T17:42:37.829Z,76.40
2019-01-23T17:45:09.210Z,71.03
2019-01-23T17:47:36.608Z,65.33
2019-01-23T17:50:04.852Z,66.40
2019-01-23T17:52:32.581Z,65.90
2019-01-23T17:55:00.289Z,74.70
2019-01-23T17:57:27.900Z,74.17
2019-01-23T17:59:55.333Z,71.10
2019-01-23T18:02:23.206Z,69.53
2019-01-23T18:04:50.654Z,73.07
2019-01-23T18:07:18.323Z,70.57
2019-01-23T18:09:45.723Z,82.60
2019-01-23T18:12:13.077Z,73.77
2019-01-23T18:14:40.743Z,76.40
2019-01-23T18:17:08.063Z,83.37
2019-01-23T18:19:35.520Z,78.93
2019-01-23T18:22:03.281Z,77.33
2019-01-23T18:24:30.649Z,76.30
2019-01-23T18:26:58.426Z,79.17
2019-01-23T18:29:26.166Z,80.70
2019-01-23T18:32:04.722Z,73.00
2019-01-23T18:35:03.846Z,82.53
2019-01-23T18:37:48.066Z,81.60
2019-01-23T18:40:47.044Z,86.77
2019-01-23T18:43:40.043Z,77.23
2019-01-23T18:46:46.385Z,80.63
2019-01-23T18:49:27.237Z,75.17
2019-01-23T18:52:10.363Z,80.90
2019-01-23T18:54:37.794Z,80.57
2019-01-23T18:57:06.500Z,77.53
2019-01-23T18:59:33.939Z,72.47
2019-01-23T19:02:01.224Z,72.53
2019-01-23T19:04:29.184Z,67.00
2019-01-23T19:06:57.056Z,72.40
2019-01-23T19:09:24.408Z,69.67
2019-01-23T19:11:51.795Z,77.53
2019-01-23T19:14:24.376Z,75.53
2019-01-23T19:16:49.339Z,84.50
2019-01-23T19:19:16.665Z,78.43
2019-01-23T19:21:44.444Z,80.93
2019-01-23T19:24:12.000Z,80.93
2019-01-23T19:26:39.928Z,74.20
2019-01-23T19:29:07.245Z,87.20
2019-01-23T19:31:34.909Z,78.43
2019-01-23T19:34:02.830Z,77.03
2019-01-23T19:36:30.188Z,82.33
2019-01-23T19:38:57.850Z,81.50
2019-01-23T19:41:25.535Z,76.07
2019-01-23T19:43:52.873Z,78.13
2019-01-23T19:46:20.320Z,89.03
2019-01-23T19:48:47.696Z,82.67
2019-01-23T19:51:15.141Z,72.63
2019-01-23T19:53:42.747Z,78.50
2019-01-23T19:56:10.130Z,68.83
2019-01-23T19:58:37.578Z,69.80
2019-01-23T20:01:05.093Z,73.40
2019-01-23T20:03:32.437Z,76.77
2019-01-23T20:06:00.173Z,66.17
2019-01-23T20:08:27.566Z,70.33
2019-01-23T20:10:54.937Z,69.77
2019-01-23T20:13:22.657Z,74.83
2019-01-23T20:15:50.390Z,70.10
2019-01-23T20:18:17.808Z,74.40
2019-01-23T20:20:45.271Z,74.13
2019-01-23T20:23:13.007Z,70.90
2019-01-23T20:25:40.332Z,75.63
2019-01-23T20:28:10.042Z,79.40
2019-01-23T20:30:39.413Z,67.53
2019-01-23T20:33:06.753Z,77.27
2019-01-23T20:35:34.061Z,73.40
2019-01-23T20:38:02.148Z,73.90
2019-01-23T20:40:29.880Z,70.63
2019-01-23T20:42:57.457Z,70.80
2019-01-23T20:45:25.174Z,77.30
2019-01-23T20:47:52.504Z,67.73
2019-01-23T20:50:21.865Z,70.90
2019-01-23T20:52:49.284Z,71.00
2019-01-23T20:55:16.594Z,74.60
2019-01-23T20:57:44.310Z,69.77
2019-01-23T21:00:14.746Z,76.17
2019-01-23T21:02:42.091Z,68.60
2019-01-23T21:05:09.438Z,69.73
2019-01-23T21:07:37.493Z,67.10
2019-01-23T21:10:06.268Z,64.37
2019-01-23T21:12:34.132Z,75.03
2019-01-23T21:15:01.973Z,70.60
2019-01-23T21:17:29.700Z,74.30
2019-01-23T21:19:57.411Z,74.20
2019-01-23T21:22:25.741Z,70.80
2019-01-23T21:24:53.299Z,69.63
2019-01-23T21:27:20.651Z,77.00
2019-01-23T21:29:48.381Z,71.30
2019-01-23T21:32:15.784Z,72.40
2019-01-23T21:34:43.614Z,74.00
2019-01-23T21:37:10.932Z,76.13
2019-01-23T21:39:38.271Z,79.00
2019-01-23T21:42:05.736Z,76.80
2019-01-23T21:44:33.291Z,83.17
2019-01-23T21:47:00.821Z,78.77
2019-01-23T21:49:28.532Z,74.40
2019-01-23T21:51:56.227Z,76.60
2019-01-23T21:54:23.587Z,71.30
2019-01-23T21:56:50.874Z,69.20
2019-01-23T21:59:18.182Z,70.63
2019-01-23T22:01:45.557Z,69.60
2019-01-23T22:04:12.834Z,71.63
2019-01-23T22:06:40.759Z,77.00
2019-01-23T22:09:08.252Z,88.07
2019-01-23T22:11:35.545Z,69.17
2019-01-23T22:14:03.319Z,92.77
2019-01-23T22:16:30.865Z,133.33
2019-01-23T22:18:58.198Z,84.47
2019-01-23T22:21:25.473Z,99.03
2019-01-23T22:23:52.784Z,83.20
2019-01-23T22:26:20.149Z,77.37
2019-01-23T22:28:47.521Z,100.40
2019-01-23T22:31:14.812Z,151.53
2019-01-23T22:33:42.152Z,139.57
2019-01-23T22:36:09.846Z,141.93
2019-01-23T22:38:37.264Z,146.57
2019-01-23T22:41:04.557Z,132.87
2019-01-23T22:43:31.868Z,147.57
2019-01-23T22:45:59.173Z,144.50
2019-01-23T22:48:26.766Z,148.27
2019-01-23T22:50:54.030Z,137.30
2019-01-23T22:53:21.614Z,134.50
2019-01-23T22:55:48.936Z,145.07
2019-01-23T22:58:16.138Z,144.53
2019-01-23T23:01:08.482Z,133.17
2019-01-23T23:03:35.768Z,140.03
2019-01-23T23:06:03.697Z,138.37
2019-01-23T23:08:31.277Z,135.07
2019-01-23T23:10:58.815Z,142.93
2019-01-23T23:13:26.476Z,138.77
2019-01-23T23:15:53.756Z,145.37
2019-01-23T23:18:21.310Z,144.70
2019-01-23T23:20:48.561Z,136.63
2019-01-23T23:23:16.189Z,140.50
2019-01-23T23:25:43.477Z,150.03
2019-01-23T23:28:10.927Z,145.30
2019-01-23T23:30:38.202Z,137.67
2019-01-23T23:33:06.078Z,120.77
2019-01-23T23:35:33.416Z,140.37
2019-01-23T23:38:00.798Z,135.17
2019-01-23T23:40:28.111Z,137.23
2019-01-23T23:42:55.400Z,131.47
2019-01-23T23:45:22.712Z,130.90
2019-01-23T23:47:50.299Z,139.87
2019-01-23T23:50:17.622Z,134.80
2019-01-23T23:52:45.104Z,129.00
2019-01-23T23:55:12.753Z,129.80
2019-01-23T23:57:40.442Z,139.73
